createdAt,value
2018-09-09T00:00:59.401Z,8.68
2018-09-09T00:03:34.771Z,13.30
2018-09-09T00:06:10.481Z,19.52
2018-09-09T00:08:45.833Z,16.23
2018-09-09T00:11:21.378Z,9.40
2018-09-09T00:13:56.714Z,12.80
2018-09-09T00:16:32.201Z,13.48
2018-09-09T00:19:07.713Z,13.68
2018-09-09T00:21:43.276Z,15.55
2018-09-09T00:24:18.498Z,9.03
2018-09-09T00:26:53.797Z,25.30
2018-09-09T00:29:29.325Z,14.13
2018-09-09T00:32:04.917Z,15.83
2018-09-09T00:34:40.405Z,10.43
2018-09-09T00:37:15.883Z,12.40
2018-09-09T00:39:51.369Z,15.72
2018-09-09T00:42:26.728Z,11.03
2018-09-09T00:45:02.200Z,11.97
2018-09-09T00:47:37.760Z,9.35
2018-09-09T00:50:18.418Z,20.82
2018-09-09T00:52:59.166Z,27.25
2018-09-09T00:55:34.511Z,16.40
2018-09-09T00:58:10.482Z,8.75
2018-09-09T01:00:51.360Z,12.58
2018-09-09T01:03:26.946Z,13.05
2018-09-09T01:06:02.449Z,18.32
2018-09-09T01:08:37.837Z,8.80
2018-09-09T01:11:13.129Z,18.30
2018-09-09T01:13:48.525Z,16.75
2018-09-09T01:16:23.830Z,25.02
2018-09-09T01:18:59.236Z,18.92
2018-09-09T01:21:34.484Z,20.70
2018-09-09T01:24:09.905Z,14.13
2018-09-09T01:26:45.392Z,26.68
2018-09-09T01:29:20.925Z,15.43
2018-09-09T01:31:56.344Z,22.27
2018-09-09T01:34:32.015Z,11.40
2018-09-09T01:37:07.510Z,10.45
2018-09-09T01:39:43.100Z,22.00
2018-09-09T01:42:18.392Z,12.88
2018-09-09T01:44:53.903Z,13.53
2018-09-09T01:47:29.113Z,9.08
2018-09-09T01:50:04.473Z,12.50
2018-09-09T01:52:39.959Z,22.20
2018-09-09T01:55:15.578Z,11.30
2018-09-09T01:57:51.046Z,19.23
2018-09-09T02:00:26.641Z,14.78
2018-09-09T02:03:01.996Z,12.07
2018-09-09T02:05:37.662Z,19.40
2018-09-09T02:08:13.022Z,13.80
2018-09-09T02:10:48.445Z,13.15
2018-09-09T02:13:23.799Z,16.48
2018-09-09T02:15:59.156Z,14.20
2018-09-09T02:18:34.691Z,13.48
2018-09-09T02:21:10.532Z,18.90
2018-09-09T02:23:46.052Z,15.08
2018-09-09T02:26:21.654Z,18.42
2018-09-09T02:28:57.213Z,11.75
2018-09-09T02:31:32.870Z,16.60
2018-09-09T02:34:08.278Z,22.98
2018-09-09T02:36:43.621Z,14.05
2018-09-09T02:39:18.900Z,9.50
2018-09-09T02:41:54.401Z,8.50
2018-09-09T02:44:29.697Z,12.78
2018-09-09T02:47:05.207Z,13.70
2018-09-09T02:49:40.527Z,18.12
2018-09-09T02:52:15.985Z,9.15
2018-09-09T02:54:51.403Z,9.98
2018-09-09T02:57:26.914Z,11.30
2018-09-09T03:00:02.241Z,8.65
2018-09-09T03:02:37.788Z,11.50
2018-09-09T03:05:13.308Z,8.10
2018-09-09T03:07:48.773Z,11.45
2018-09-09T03:10:24.238Z,6.65
2018-09-09T03:12:59.859Z,8.55
2018-09-09T03:15:35.589Z,8.53
2018-09-09T03:18:11.104Z,9.55
2018-09-09T03:20:46.576Z,8.68
2018-09-09T03:23:21.969Z,7.78
2018-09-09T03:26:04.257Z,9.20
2018-09-09T03:28:39.812Z,11.33
2018-09-09T03:31:15.125Z,6.85
2018-09-09T03:33:50.565Z,7.67
2018-09-09T03:36:26.090Z,7.00
2018-09-09T03:39:01.683Z,7.55
2018-09-09T03:41:37.208Z,6.60
2018-09-09T03:44:12.825Z,8.18
2018-09-09T03:46:48.299Z,9.23
2018-09-09T03:49:23.740Z,6.33
2018-09-09T03:51:59.057Z,7.40
2018-09-09T03:54:34.448Z,7.40
2018-09-09T03:57:09.710Z,6.65
2018-09-09T03:59:45.165Z,11.80
2018-09-09T04:02:20.589Z,9.05
2018-09-09T04:04:55.981Z,7.37
2018-09-09T04:07:31.304Z,7.10
2018-09-09T04:10:07.221Z,7.00
2018-09-09T04:12:42.701Z,10.68
2018-09-09T04:15:18.293Z,8.25
2018-09-09T04:17:53.765Z,13.30
2018-09-09T04:20:29.177Z,9.03
2018-09-09T04:23:04.690Z,7.10
2018-09-09T04:25:40.098Z,8.70
2018-09-09T04:28:15.361Z,10.10
2018-09-09T04:30:51.139Z,6.90
2018-09-09T04:33:26.344Z,8.93
2018-09-09T04:36:01.754Z,8.80
2018-09-09T04:38:37.093Z,7.12
2018-09-09T04:41:12.507Z,6.45
2018-09-09T04:43:47.919Z,11.00
2018-09-09T04:46:23.370Z,7.25
2018-09-09T04:48:58.807Z,6.25
2018-09-09T04:51:34.201Z,14.53
2018-09-09T04:54:09.765Z,7.72
2018-09-09T04:56:45.232Z,7.70
2018-09-09T04:59:20.670Z,7.80
2018-09-09T05:01:56.297Z,7.67
2018-09-09T05:04:31.564Z,7.10
2018-09-09T05:07:06.973Z,8.10
2018-09-09T05:09:42.474Z,6.05
2018-09-09T05:12:18.072Z,6.37
2018-09-09T05:14:53.565Z,6.55
2018-09-09T05:17:28.956Z,5.40
2018-09-09T05:20:04.749Z,5.28
2018-09-09T05:22:40.149Z,5.72
2018-09-09T05:25:15.708Z,6.15
2018-09-09T05:27:51.120Z,5.75
2018-09-09T05:30:26.565Z,6.72
2018-09-09T05:33:02.054Z,6.47
2018-09-09T05:35:37.361Z,6.47
2018-09-09T05:38:12.832Z,7.08
2018-09-09T05:40:48.324Z,8.00
2018-09-09T05:43:23.902Z,6.78
2018-09-09T05:45:59.250Z,6.20
2018-09-09T05:48:34.809Z,7.45
2018-09-09T05:51:10.968Z,5.72
2018-09-09T05:53:46.483Z,6.00
2018-09-09T05:56:21.813Z,6.80
2018-09-09T05:58:57.252Z,7.03
2018-09-09T06:01:32.811Z,6.60
2018-09-09T06:04:08.357Z,5.75
2018-09-09T06:06:43.718Z,4.83
2018-09-09T06:09:19.324Z,4.62
2018-09-09T06:11:56.386Z,4.42
2018-09-09T06:14:31.923Z,4.87
2018-09-09T06:17:07.341Z,4.60
2018-09-09T06:19:42.886Z,4.35
2018-09-09T06:22:18.293Z,6.60
2018-09-09T06:24:53.967Z,5.62
2018-09-09T06:27:29.374Z,3.80
2018-09-09T06:30:05.339Z,5.12
2018-09-09T06:32:40.755Z,4.17
2018-09-09T06:35:16.346Z,4.10
2018-09-09T06:37:51.959Z,4.45
2018-09-09T06:40:27.355Z,4.62
2018-09-09T06:43:02.733Z,4.70
2018-09-09T06:45:38.448Z,5.55
2018-09-09T06:48:13.754Z,4.90
2018-09-09T06:50:49.093Z,5.43
2018-09-09T06:53:24.552Z,6.10
2018-09-09T06:56:00.123Z,4.15
2018-09-09T06:58:35.442Z,5.27
2018-09-09T07:01:11.248Z,4.77
2018-09-09T07:03:46.660Z,4.60
2018-09-09T07:06:22.068Z,4.60
2018-09-09T07:08:57.537Z,4.80
2018-09-09T07:11:33.222Z,4.93
2018-09-09T07:14:08.545Z,5.03
2018-09-09T07:16:44.068Z,5.10
2018-09-09T07:19:19.373Z,5.60
2018-09-09T07:21:55.362Z,5.27
2018-09-09T07:24:30.800Z,5.77
2018-09-09T07:27:06.420Z,5.10
2018-09-09T07:29:42.113Z,5.57
2018-09-09T07:32:17.617Z,5.47
2018-09-09T07:34:53.133Z,5.60
2018-09-09T07:37:28.737Z,5.47
2018-09-09T07:40:04.181Z,6.70
2018-09-09T07:42:39.633Z,6.60
2018-09-09T07:45:15.359Z,5.62
2018-09-09T07:47:50.877Z,6.07
2018-09-09T07:50:26.349Z,6.23
2018-09-09T07:53:01.680Z,6.00
2018-09-09T07:55:37.181Z,6.03
2018-09-09T07:58:12.465Z,6.23
2018-09-09T08:00:48.102Z,6.33
2018-09-09T08:03:23.778Z,5.77
2018-09-09T08:05:58.952Z,6.13
2018-09-09T08:08:34.325Z,6.60
2018-09-09T08:11:09.812Z,6.60
2018-09-09T08:13:45.573Z,5.87
2018-09-09T08:16:21.129Z,6.90
2018-09-09T08:18:59.662Z,7.30
2018-09-09T08:21:35.615Z,6.10
2018-09-09T08:24:11.082Z,6.20
2018-09-09T08:26:46.445Z,6.80
2018-09-09T08:29:22.084Z,5.70
2018-09-09T08:31:57.441Z,6.47
2018-09-09T08:34:40.570Z,5.43
2018-09-09T08:37:15.913Z,6.13
2018-09-09T08:39:51.357Z,6.50
2018-09-09T08:42:26.677Z,5.70
2018-09-09T08:45:02.452Z,6.10
2018-09-09T08:47:37.849Z,5.50
2018-09-09T08:50:14.085Z,5.63
2018-09-09T08:52:49.483Z,6.37
2018-09-09T08:55:24.924Z,6.00
2018-09-09T08:58:00.340Z,6.27
2018-09-09T09:00:35.809Z,5.80
2018-09-09T09:03:11.453Z,5.60
2018-09-09T09:05:46.991Z,5.70
2018-09-09T09:08:22.633Z,5.60
2018-09-09T09:10:58.218Z,5.80
2018-09-09T09:13:33.578Z,4.73
2018-09-09T09:16:09.176Z,4.20
2018-09-09T09:18:44.713Z,5.33
2018-09-09T09:21:20.278Z,5.23
2018-09-09T09:23:55.837Z,4.90
2018-09-09T09:26:31.401Z,5.40
2018-09-09T09:29:08.328Z,5.83
2018-09-09T09:31:43.751Z,6.43
2018-09-09T09:34:19.242Z,5.73
2018-09-09T09:36:54.762Z,6.10
2018-09-09T09:39:30.701Z,6.37
2018-09-09T09:42:06.235Z,6.00
2018-09-09T09:44:43.966Z,6.30
2018-09-09T09:47:19.278Z,5.70
2018-09-09T09:49:54.804Z,5.57
2018-09-09T09:52:30.391Z,6.10
2018-09-09T09:55:05.907Z,5.60
2018-09-09T09:57:41.326Z,6.17
2018-09-09T10:00:23.065Z,6.40
2018-09-09T10:02:58.634Z,5.87
2018-09-09T10:05:34.871Z,5.97
2018-09-09T10:08:10.233Z,6.27
2018-09-09T10:10:45.701Z,5.17
2018-09-09T10:13:21.196Z,5.97
2018-09-09T10:15:57.143Z,5.60
2018-09-09T10:18:32.624Z,5.17
2018-09-09T10:21:08.185Z,6.37
2018-09-09T10:23:43.759Z,5.40
2018-09-09T10:26:19.245Z,6.33
2018-09-09T10:28:54.949Z,5.80
2018-09-09T10:31:30.402Z,4.50
2018-09-09T10:34:05.805Z,5.40
2018-09-09T10:36:41.640Z,5.53
2018-09-09T10:39:17.217Z,5.90
2018-09-09T10:41:52.432Z,5.10
2018-09-09T10:44:28.301Z,4.27
2018-09-09T10:47:03.756Z,5.63
2018-09-09T10:49:39.198Z,4.37
2018-09-09T10:52:14.578Z,4.10
2018-09-09T10:54:49.997Z,3.67
2018-09-09T10:57:25.529Z,3.43
2018-09-09T11:00:01.151Z,3.97
2018-09-09T11:02:36.623Z,3.20
2018-09-09T11:05:12.217Z,3.70
2018-09-09T11:07:47.704Z,3.10
2018-09-09T11:10:23.128Z,3.63
2018-09-09T11:12:58.605Z,3.40
2018-09-09T11:15:34.460Z,3.33
2018-09-09T11:18:10.057Z,3.60
2018-09-09T11:20:45.942Z,4.17
2018-09-09T11:23:21.254Z,3.13
2018-09-09T11:25:57.705Z,4.10
2018-09-09T11:28:33.005Z,4.23
2018-09-09T11:31:08.405Z,3.50
2018-09-09T11:33:44.006Z,8.30
2018-09-09T11:36:19.612Z,5.83
2018-09-09T11:38:54.930Z,4.17
2018-09-09T11:41:30.592Z,3.83
2018-09-09T11:44:06.141Z,3.20
2018-09-09T11:46:41.536Z,3.47
2018-09-09T11:49:16.825Z,2.50
2018-09-09T11:51:52.226Z,2.77
2018-09-09T11:54:27.572Z,2.97
2018-09-09T11:57:03.021Z,2.40
2018-09-09T11:59:38.489Z,2.80
2018-09-09T12:02:14.005Z,2.90
2018-09-09T12:04:49.914Z,3.40
2018-09-09T12:07:25.508Z,2.77
2018-09-09T12:10:01.069Z,2.30
2018-09-09T12:12:36.497Z,3.43
2018-09-09T12:15:12.057Z,2.80
2018-09-09T12:17:47.445Z,2.30
2018-09-09T12:20:22.843Z,3.03
2018-09-09T12:22:58.458Z,2.70
2018-09-09T12:25:40.425Z,3.37
2018-09-09T12:28:15.991Z,2.63
2018-09-09T12:30:51.492Z,2.93
2018-09-09T12:33:26.930Z,2.70
2018-09-09T12:36:02.271Z,2.10
2018-09-09T12:38:38.206Z,2.73
2018-09-09T12:41:13.593Z,2.73
2018-09-09T12:43:54.306Z,2.60
2018-09-09T12:46:34.880Z,2.40
2018-09-09T12:49:10.465Z,2.97
2018-09-09T12:51:45.847Z,2.30
2018-09-09T12:54:21.401Z,3.03
2018-09-09T12:56:56.642Z,2.50
2018-09-09T12:59:32.121Z,2.30
2018-09-09T13:02:07.601Z,2.30
2018-09-09T13:04:43.221Z,2.37
2018-09-09T13:07:18.770Z,3.50
2018-09-09T13:09:54.384Z,2.40
2018-09-09T13:12:35.987Z,4.50
2018-09-09T13:15:11.563Z,10.33
2018-09-09T13:17:47.060Z,5.57
2018-09-09T13:20:22.500Z,2.20
2018-09-09T13:22:58.094Z,2.20
2018-09-09T13:25:33.638Z,2.30
2018-09-09T13:28:09.157Z,2.77
2018-09-09T13:30:44.705Z,2.50
2018-09-09T13:33:20.071Z,2.77
2018-09-09T13:35:55.715Z,2.40
2018-09-09T13:38:31.105Z,2.83
2018-09-09T13:41:06.529Z,2.80
2018-09-09T13:43:41.969Z,2.60
2018-09-09T13:46:17.369Z,2.53
2018-09-09T13:48:52.862Z,2.60
2018-09-09T13:51:28.302Z,2.77
2018-09-09T13:54:03.585Z,2.47
2018-09-09T13:56:39.073Z,3.23
2018-09-09T13:59:14.710Z,2.80
2018-09-09T14:01:50.126Z,2.83
2018-09-09T14:04:25.988Z,3.00
2018-09-09T14:07:01.877Z,2.33
2018-09-09T14:09:37.294Z,2.57
2018-09-09T14:12:12.657Z,2.37
2018-09-09T14:14:48.153Z,2.90
2018-09-09T14:17:23.579Z,2.60
2018-09-09T14:19:59.333Z,2.20
2018-09-09T14:22:34.948Z,2.70
2018-09-09T14:25:10.282Z,2.20
2018-09-09T14:27:46.031Z,2.50
2018-09-09T14:30:21.473Z,2.30
2018-09-09T14:32:57.079Z,2.90
2018-09-09T14:35:33.313Z,2.07
2018-09-09T14:38:08.644Z,2.20
2018-09-09T14:40:44.037Z,2.70
2018-09-09T14:43:19.446Z,2.90
2018-09-09T14:45:55.025Z,2.50
2018-09-09T14:48:30.462Z,2.23
2018-09-09T14:51:05.945Z,3.27
2018-09-09T14:53:41.462Z,2.13
2018-09-09T14:56:17.021Z,2.43
2018-09-09T14:58:52.573Z,2.53
2018-09-09T15:01:28.005Z,2.30
2018-09-09T15:04:03.488Z,2.10
2018-09-09T15:06:39.103Z,3.17
2018-09-09T15:09:14.734Z,2.10
2018-09-09T15:11:50.026Z,2.67
2018-09-09T15:14:25.328Z,3.53
2018-09-09T15:17:00.837Z,3.30
2018-09-09T15:19:36.353Z,2.23
2018-09-09T15:22:18.743Z,2.13
2018-09-09T15:24:54.156Z,3.13
2018-09-09T15:27:29.437Z,2.63
2018-09-09T15:30:04.885Z,2.80
2018-09-09T15:32:40.425Z,3.30
2018-09-09T15:35:15.813Z,2.23
2018-09-09T15:37:51.865Z,2.07
2018-09-09T15:40:27.351Z,4.03
2018-09-09T15:43:02.568Z,2.90
2018-09-09T15:45:38.055Z,2.77
2018-09-09T15:48:13.464Z,3.40
2018-09-09T15:50:49.021Z,3.03
2018-09-09T15:53:24.274Z,3.20
2018-09-09T15:55:59.974Z,3.40
2018-09-09T15:58:35.485Z,3.23
2018-09-09T16:01:10.910Z,2.67
2018-09-09T16:03:46.297Z,5.80
2018-09-09T16:06:21.745Z,2.30
2018-09-09T16:08:57.054Z,4.23
2018-09-09T16:11:32.445Z,2.67
2018-09-09T16:14:07.665Z,2.20
2018-09-09T16:16:43.043Z,2.40
2018-09-09T16:19:18.384Z,2.60
2018-09-09T16:21:53.905Z,2.23
2018-09-09T16:24:29.332Z,2.47
2018-09-09T16:27:04.776Z,2.60
2018-09-09T16:29:40.094Z,2.53
2018-09-09T16:32:15.565Z,2.50
2018-09-09T16:34:51.492Z,2.20
2018-09-09T16:37:27.040Z,3.47
2018-09-09T16:40:02.521Z,2.97
2018-09-09T16:42:37.920Z,2.57
2018-09-09T16:45:13.277Z,2.83
2018-09-09T16:47:49.164Z,3.10
2018-09-09T16:50:24.670Z,3.27
2018-09-09T16:53:00.120Z,2.80
2018-09-09T16:55:35.480Z,3.00
2018-09-09T16:58:10.984Z,3.10
2018-09-09T17:00:46.438Z,2.60
2018-09-09T17:03:22.023Z,2.83
2018-09-09T17:05:57.336Z,3.50
2018-09-09T17:08:32.891Z,3.23
2018-09-09T17:11:15.183Z,3.30
2018-09-09T17:13:51.809Z,5.70
2018-09-09T17:16:27.250Z,3.43
2018-09-09T17:19:02.757Z,2.97
2018-09-09T17:21:38.145Z,3.30
2018-09-09T17:24:13.514Z,3.30
2018-09-09T17:26:49.762Z,3.10
2018-09-09T17:29:25.831Z,3.60
2018-09-09T17:32:02.109Z,2.90
2018-09-09T17:34:37.632Z,3.13
2018-09-09T17:37:12.875Z,2.97
2018-09-09T17:39:48.318Z,3.77
2018-09-09T17:42:23.744Z,3.00
2018-09-09T17:45:00.177Z,3.43
2018-09-09T17:47:35.684Z,5.00
2018-09-09T17:50:11.268Z,3.80
2018-09-09T17:52:46.632Z,4.10
2018-09-09T17:55:22.915Z,3.90
2018-09-09T17:57:58.295Z,4.70
2018-09-09T18:00:34.782Z,3.77
2018-09-09T18:03:10.636Z,4.30
2018-09-09T18:05:45.970Z,4.50
2018-09-09T18:08:21.474Z,4.57
2018-09-09T18:10:57.187Z,4.30
2018-09-09T18:13:32.897Z,3.83
2018-09-09T18:16:08.450Z,6.87
2018-09-09T18:18:43.960Z,8.57
2018-09-09T18:21:19.594Z,17.60
2018-09-09T18:23:55.094Z,31.83
2018-09-09T18:26:30.488Z,11.67
2018-09-09T18:29:05.965Z,14.00
2018-09-09T18:31:41.493Z,14.57
2018-09-09T18:34:17.101Z,19.33
2018-09-09T18:36:54.165Z,24.87
2018-09-09T18:39:29.530Z,24.70
2018-09-09T18:42:05.066Z,24.27
2018-09-09T18:44:40.541Z,23.17
2018-09-09T18:47:16.066Z,21.57
2018-09-09T18:49:51.697Z,20.17
2018-09-09T18:52:27.393Z,21.87
2018-09-09T18:55:02.862Z,15.03
2018-09-09T18:57:38.329Z,23.27
2018-09-09T19:00:13.719Z,25.73
2018-09-09T19:02:49.418Z,21.87
2018-09-09T19:05:25.369Z,21.20
2018-09-09T19:08:00.813Z,27.80
2018-09-09T19:10:36.232Z,31.10
2018-09-09T19:13:11.718Z,25.07
2018-09-09T19:15:47.177Z,28.10
2018-09-09T19:18:22.866Z,41.40
2018-09-09T19:20:58.335Z,23.40
2018-09-09T19:23:33.954Z,28.50
2018-09-09T19:26:09.298Z,36.00
2018-09-09T19:28:44.864Z,30.40
2018-09-09T19:31:20.645Z,36.37
2018-09-09T19:33:56.205Z,18.50
2018-09-09T19:36:32.683Z,27.13
2018-09-09T19:39:11.291Z,23.40
2018-09-09T19:41:46.733Z,24.90
2018-09-09T19:44:28.824Z,27.10
2018-09-09T19:47:04.689Z,19.65
2018-09-09T19:49:40.170Z,18.40
2018-09-09T19:52:16.157Z,20.05
2018-09-09T19:54:51.920Z,31.77
2018-09-09T19:57:27.486Z,33.15
2018-09-09T20:00:03.165Z,24.77
2018-09-09T20:02:38.817Z,34.58
2018-09-09T20:05:14.313Z,27.80
2018-09-09T20:07:49.793Z,27.40
2018-09-09T20:10:25.269Z,27.98
2018-09-09T20:13:00.814Z,16.45
2018-09-09T20:15:36.340Z,30.50
2018-09-09T20:18:11.888Z,54.35
2018-09-09T20:20:47.449Z,17.92
2018-09-09T20:23:22.696Z,42.53
2018-09-09T20:25:58.290Z,42.17
2018-09-09T20:28:33.757Z,52.00
2018-09-09T20:31:09.158Z,28.95
2018-09-09T20:33:45.057Z,36.25
2018-09-09T20:36:20.512Z,43.43
2018-09-09T20:38:55.941Z,46.85
2018-09-09T20:41:31.557Z,58.05
2018-09-09T20:44:07.705Z,37.40
2018-09-09T20:46:43.330Z,48.90
2018-09-09T20:49:18.820Z,44.70
2018-09-09T20:51:54.242Z,28.73
2018-09-09T20:54:29.549Z,25.10
2018-09-09T20:57:04.996Z,40.63
2018-09-09T20:59:40.374Z,24.90
2018-09-09T21:02:15.922Z,42.83
2018-09-09T21:04:51.481Z,36.63
2018-09-09T21:07:27.049Z,29.77
2018-09-09T21:10:02.474Z,47.73
2018-09-09T21:12:38.281Z,35.97
2018-09-09T21:15:13.724Z,37.00
2018-09-09T21:17:49.221Z,39.47
2018-09-09T21:20:24.745Z,48.97
2018-09-09T21:23:00.225Z,41.37
2018-09-09T21:25:35.634Z,63.30
2018-09-09T21:28:11.020Z,40.97
2018-09-09T21:30:46.409Z,39.73
2018-09-09T21:33:21.852Z,21.73
2018-09-09T21:35:57.173Z,49.20
2018-09-09T21:38:32.720Z,35.20
2018-09-09T21:41:08.126Z,49.70
2018-09-09T21:43:43.749Z,44.43
2018-09-09T21:46:20.305Z,53.53
2018-09-09T21:48:55.898Z,59.10
2018-09-09T21:51:31.427Z,62.83
2018-09-09T21:54:07.173Z,96.82
2018-09-09T21:56:43.545Z,28.35
2018-09-09T21:59:19.189Z,45.12
2018-09-09T22:01:59.752Z,87.22
2018-09-09T22:04:35.813Z,78.07
2018-09-09T22:07:12.169Z,12.28
2018-09-09T22:09:47.820Z,53.13
2018-09-09T22:12:23.313Z,77.80
2018-09-09T22:14:58.922Z,60.63
2018-09-09T22:17:34.442Z,58.75
2018-09-09T22:20:10.289Z,48.13
2018-09-09T22:22:45.691Z,55.60
2018-09-09T22:25:21.413Z,52.10
2018-09-09T22:27:56.793Z,56.03
2018-09-09T22:30:32.277Z,78.72
2018-09-09T22:33:07.645Z,48.15
2018-09-09T22:35:43.058Z,52.55
2018-09-09T22:38:18.562Z,56.88
2018-09-09T22:40:54.048Z,83.10
2018-09-09T22:43:29.365Z,76.47
2018-09-09T22:46:04.808Z,45.70
2018-09-09T22:48:40.312Z,11.15
2018-09-09T22:51:15.757Z,27.60
2018-09-09T22:53:51.074Z,37.05
2018-09-09T22:56:26.488Z,40.45
2018-09-09T22:59:01.872Z,27.75
2018-09-09T23:01:37.444Z,43.90
2018-09-09T23:04:12.979Z,32.65
2018-09-09T23:06:48.373Z,39.80
2018-09-09T23:09:23.801Z,62.43
2018-09-09T23:11:59.420Z,36.38
2018-09-09T23:14:34.946Z,37.30
2018-09-09T23:17:10.399Z,44.03
2018-09-09T23:19:45.940Z,43.87
2018-09-09T23:22:21.544Z,27.27
2018-09-09T23:24:56.886Z,7.20
2018-09-09T23:27:32.336Z,10.90
2018-09-09T23:30:07.819Z,5.62
2018-09-09T23:32:43.296Z,5.85
2018-09-09T23:35:18.499Z,6.83
2018-09-09T23:37:54.085Z,20.62
2018-09-09T23:40:29.467Z,12.80
2018-09-09T23:43:04.901Z,26.10
2018-09-09T23:45:40.141Z,29.92
2018-09-09T23:48:15.635Z,12.90
2018-09-09T23:50:51.049Z,25.55
2018-09-09T23:53:26.413Z,28.77
2018-09-09T23:56:01.904Z,31.10
2018-09-09T23:58:37.516Z,31.87
